Observation data for Silverton on 07/03/2020      Previous  Date  Next       Current Mesonet Observations  Soil Data  Daily Summary Page  Observations in Plain Language
KSVS 030500Z 08005KT 23/17 A3009 RMK A01 T02310173  RH  073%=      5-min Rain = 0
KSVS 030505Z 09005KT 23/17 A3009 RMK A01 T02320172  RH  073%=      5-min Rain = 0
KSVS 030510Z 09005KT 23/17 A3009 RMK A01 T02330171  RH  072%=      5-min Rain = 0
KSVS 030515Z 09006KT 24/17 A3009 RMK A01 T02380170  RH  069%=      5-min Rain = 0
KSVS 030520Z 10006KT 24/17 A3009 RMK A01 T02410170  RH  068%=      5-min Rain = 0
KSVS 030525Z 09006KT 24/17 A3009 RMK A01 T02420170  RH  067%=      5-min Rain = 0
KSVS 030530Z 10006KT 24/17 A3009 RMK A01 T02430169  RH  067%=      5-min Rain = 0
KSVS 030535Z 10006KT 24/17 A3009 RMK A01 T02440169  RH  066%=      5-min Rain = 0
KSVS 030540Z 11006KT 24/17 A3008 RMK A01 T02430169  RH  067%=      5-min Rain = 0
KSVS 030545Z 12006KT 24/17 A3008 RMK A01 T02410169  RH  068%=      5-min Rain = 0
KSVS 030550Z 12006KT 24/17 A3008 RMK A01 T02410169  RH  068%=      5-min Rain = 0
KSVS 030555Z 13005KT 24/17 A3008 RMK A01 T02410169  RH  067%=      5-min Rain = 0
KSVS 030600Z 15005KT 24/17 A3007 RMK A01 T02410169  RH  068%=      5-min Rain = 0
KSVS 030605Z 16007KT 24/17 A3007 RMK A01 T02410169  RH  067%=      5-min Rain = 0
KSVS 030610Z 15008KT 25/17 A3007 RMK A01 T02460169  RH  065%=      5-min Rain = 0
KSVS 030615Z 15008KT 25/17 A3007 RMK A01 T02500170  RH  064%=      5-min Rain = 0
KSVS 030620Z 15008KT 25/17 A3007 RMK A01 T02530170  RH  063%=      5-min Rain = 0
KSVS 030625Z 15007KT 25/17 A3007 RMK A01 T02520170  RH  063%=      5-min Rain = 0
KSVS 030630Z 16007KT 25/17 A3007 RMK A01 T02510170  RH  064%=      5-min Rain = 0
KSVS 030635Z 17007KT 25/17 A3007 RMK A01 T02490171  RH  065%=      5-min Rain = 0
KSVS 030640Z 16006KT 25/17 A3007 RMK A01 T02450174  RH  068%=      5-min Rain = 0
KSVS 030645Z 17006KT 24/18 A3007 RMK A01 T02410175  RH  070%=      5-min Rain = 0
KSVS 030650Z 18006KT 24/18 A3007 RMK A01 T02390175  RH  071%=      5-min Rain = 0
KSVS 030655Z 18007KT 24/17 A3006 RMK A01 T02390174  RH  071%=      5-min Rain = 0
KSVS 030700Z 19007KT 24/18 A3006 RMK A01 T02370175  RH  072%=      5-min Rain = 0
KSVS 030705Z 19007KT 23/18 A3005 RMK A01 T02330175  RH  074%=      5-min Rain = 0
KSVS 030710Z 20007KT 23/18 A3005 RMK A01 T02280176  RH  076%=      5-min Rain = 0
KSVS 030715Z 22006KT 22/18 A3005 RMK A01 T02230178  RH  080%=      5-min Rain = 0
KSVS 030720Z 23005KT 22/18 A3005 RMK A01 T02220176  RH  079%=      5-min Rain = 0
KSVS 030725Z 24004KT 22/17 A3005 RMK A01 T02210174  RH  079%=      5-min Rain = 0
KSVS 030730Z 22005KT 22/17 A3005 RMK A01 T02220172  RH  077%=      5-min Rain = 0
KSVS 030735Z 21006KT 23/17 A3005 RMK A01 T02250171  RH  075%=      5-min Rain = 0
KSVS 030740Z 20007KT 23/17 A3004 RMK A01 T02300169  RH  072%=      5-min Rain = 0
KSVS 030745Z 19008KT 24/17 A3004 RMK A01 T02390168  RH  068%=      5-min Rain = 0
KSVS 030750Z 19009KT 24/17 A3003 RMK A01 T02380169  RH  069%=      5-min Rain = 0
KSVS 030755Z 19009KT 24/17 A3003 RMK A01 T02370169  RH  069%=      5-min Rain = 0
KSVS 030800Z 19007KT 24/17 A3003 RMK A01 T02370170  RH  069%=      5-min Rain = 0
KSVS 030805Z 20006KT 24/17 A3003 RMK A01 T02350171  RH  071%=      5-min Rain = 0
KSVS 030810Z 21006KT 23/17 A3003 RMK A01 T02310173  RH  073%=      5-min Rain = 0
KSVS 030815Z 22007KT 23/17 A3003 RMK A01 T02300173  RH  074%=      5-min Rain = 0
KSVS 030820Z 22008KT 23/17 A3003 RMK A01 T02300173  RH  074%=      5-min Rain = 0
KSVS 030825Z 21008KT 23/17 A3003 RMK A01 T02310172  RH  073%=      5-min Rain = 0
KSVS 030830Z 20008KT 23/17 A3003 RMK A01 T02320171  RH  072%=      5-min Rain = 0
KSVS 030835Z 20007KT 24/17 A3003 RMK A01 T02350169  RH  070%=      5-min Rain = 0
KSVS 030840Z 19007KT 24/17 A3003 RMK A01 T02370168  RH  069%=      5-min Rain = 0
KSVS 030845Z 20007KT 24/17 A3003 RMK A01 T02360167  RH  069%=      5-min Rain = 0
KSVS 030850Z 19005KT 23/17 A3003 RMK A01 T02340167  RH  069%=      5-min Rain = 0
KSVS 030855Z 19005KT 23/17 A3004 RMK A01 T02290166  RH  071%=      5-min Rain = 0
KSVS 030900Z 19004KT 23/17 A3004 RMK A01 T02250166  RH  073%=      5-min Rain = 0
KSVS 030905Z 18003KT 22/17 A3004 RMK A01 T02230165  RH  073%=      5-min Rain = 0
KSVS 030910Z 18003KT 22/16 A3004 RMK A01 T02240164  RH  072%=      5-min Rain = 0
KSVS 030915Z 18003KT 23/16 A3004 RMK A01 T02250164  RH  072%=      5-min Rain = 0
KSVS 030920Z 18003KT 22/16 A3004 RMK A01 T02220163  RH  073%=      5-min Rain = 0
KSVS 030925Z 18004KT 22/16 A3004 RMK A01 T02200163  RH  074%=      5-min Rain = 0
KSVS 030930Z 18005KT 22/16 A3004 RMK A01 T02150162  RH  075%=      5-min Rain = 0
KSVS 030935Z 18006KT 22/16 A3004 RMK A01 T02150163  RH  076%=      5-min Rain = 0
KSVS 030940Z 17006KT 21/16 A3004 RMK A01 T02130163  RH  077%=      5-min Rain = 0
KSVS 030945Z 17006KT 21/16 A3004 RMK A01 T02100164  RH  079%=      5-min Rain = 0
KSVS 030950Z 18007KT 22/16 A3004 RMK A01 T02160163  RH  075%=      5-min Rain = 0
KSVS 030955Z 18006KT 21/16 A3004 RMK A01 T02140162  RH  076%=      5-min Rain = 0
KSVS 031000Z 17005KT 21/16 A3005 RMK A01 T02100162  RH  077%=      5-min Rain = 0
KSVS 031005Z 16004KT 21/16 A3005 RMK A01 T02100162  RH  078%=      5-min Rain = 0
KSVS 031010Z 16003KT 21/16 A3005 RMK A01 T02090162  RH  078%=      5-min Rain = 0
KSVS 031015Z 16003KT 21/16 A3005 RMK A01 T02060163  RH  080%=      5-min Rain = 0
KSVS 031020Z 16004KT 21/16 A3006 RMK A01 T02080162  RH  079%=      5-min Rain = 0
KSVS 031025Z 17004KT 21/16 A3006 RMK A01 T02110161  RH  077%=      5-min Rain = 0
KSVS 031030Z 16003KT 21/16 A3006 RMK A01 T02090161  RH  078%=      5-min Rain = 0
KSVS 031035Z 16004KT 21/16 A3006 RMK A01 T02080161  RH  078%=      5-min Rain = 0
KSVS 031040Z 14004KT 21/16 A3006 RMK A01 T02100161  RH  077%=      5-min Rain = 0
KSVS 031045Z 13004KT 21/16 A3006 RMK A01 T02110161  RH  077%=      5-min Rain = 0
KSVS 031050Z 11004KT 21/16 A3007 RMK A01 T02110161  RH  077%=      5-min Rain = 0
KSVS 031055Z 09003KT 21/16 A3007 RMK A01 T02080162  RH  078%=      5-min Rain = 0
KSVS 031100Z 11002KT 20/16 A3007 RMK A01 T02030163  RH  081%=      5-min Rain = 0
KSVS 031105Z 13003KT 20/16 A3007 RMK A01 T02010163  RH  082%=      5-min Rain = 0
KSVS 031110Z 14003KT 20/16 A3007 RMK A01 T02020163  RH  082%=      5-min Rain = 0
KSVS 031115Z 14004KT 20/16 A3007 RMK A01 T02030162  RH  081%=      5-min Rain = 0
KSVS 031120Z 14004KT 20/16 A3007 RMK A01 T02030163  RH  082%=      5-min Rain = 0
KSVS 031125Z 13003KT 21/16 A3007 RMK A01 T02050163  RH  081%=      5-min Rain = 0
KSVS 031130Z 11003KT 20/16 A3007 RMK A01 T01990161  RH  083%=      5-min Rain = 0
KSVS 031135Z 10004KT 20/16 A3007 RMK A01 T01950161  RH  085%=      5-min Rain = 0
KSVS 031140Z 10004KT 20/16 A3007 RMK A01 T01970162  RH  084%=      5-min Rain = 0
KSVS 031145Z 11005KT 20/16 A3007 RMK A01 T01970162  RH  084%=      5-min Rain = 0
KSVS 031150Z 12005KT 20/16 A3007 RMK A01 T01990163  RH  084%=      5-min Rain = 0
KSVS 031155Z 13006KT 20/16 A3007 RMK A01 T02010163  RH  083%=      5-min Rain = 0
KSVS 031200Z 13006KT 20/17 A3008 RMK A01 T02030165  RH  082%=      5-min Rain = 0
KSVS 031205Z 12007KT 20/17 A3008 RMK A01 T02030166  RH  083%=      5-min Rain = 0
KSVS 031210Z 11007KT 21/17 A3008 RMK A01 T02050168  RH  083%=      5-min Rain = 0
KSVS 031215Z 10007KT 21/17 A3008 RMK A01 T02100169  RH  082%=      5-min Rain = 0
KSVS 031220Z 09007KT 22/17 A3009 RMK A01 T02150171  RH  080%=      5-min Rain = 0
KSVS 031225Z 10006KT 22/17 A3009 RMK A01 T02190172  RH  078%=      5-min Rain = 0
KSVS 031230Z 10006KT 22/17 A3009 RMK A01 T02230173  RH  077%=      5-min Rain = 0
KSVS 031235Z 11005KT 23/18 A3008 RMK A01 T02260175  RH  077%=      5-min Rain = 0
KSVS 031240Z 11004KT 23/18 A3008 RMK A01 T02280176  RH  076%=      5-min Rain = 0
KSVS 031245Z 11004KT 23/18 A3009 RMK A01 T02320176  RH  075%=      5-min Rain = 0
KSVS 031250Z 10003KT 24/18 A3009 RMK A01 T02360176  RH  073%=      5-min Rain = 0
KSVS 031255Z 10004KT 24/18 A3009 RMK A01 T02390176  RH  072%=      5-min Rain = 0
KSVS 031300Z 10004KT 24/18 A3009 RMK A01 T02410177  RH  071%=      5-min Rain = 0
KSVS 031305Z 10005KT 24/18 A3009 RMK A01 T02440177  RH  070%=      5-min Rain = 0
KSVS 031310Z 10005KT 25/18 A3009 RMK A01 T02480178  RH  069%=      5-min Rain = 0
KSVS 031315Z 10007KT 25/18 A3009 RMK A01 T02500178  RH  068%=      5-min Rain = 0
KSVS 031320Z 11006KT 25/18 A301 RMK A01 T02510179  RH  067%=      5-min Rain = 0
KSVS 031325Z 12005KT 25/18 A301 RMK A01 T02530179  RH  067%=      5-min Rain = 0
KSVS 031330Z 12005KT 26/18 A301 RMK A01 T02550178  RH  066%=      5-min Rain = 0
KSVS 031335Z 12004KT 26/18 A301 RMK A01 T02580179  RH  065%=      5-min Rain = 0
KSVS 031340Z 12004KT 26/18 A301 RMK A01 T02610178  RH  063%=      5-min Rain = 0
KSVS 031345Z 12004KT 26/18 A301 RMK A01 T02620178  RH  063%=      5-min Rain = 0
KSVS 031350Z 13005KT 27/18 A301 RMK A01 T02670178  RH  061%=      5-min Rain = 0
KSVS 031355Z 12005KT 27/18 A301 RMK A01 T02700177  RH  060%=      5-min Rain = 0
KSVS 031400Z 12004KT 27/18 A301 RMK A01 T02730176  RH  058%=      5-min Rain = 0
KSVS 031405Z 13004KT 28/17 A301 RMK A01 T02760174  RH  056%=      5-min Rain = 0
KSVS 031410Z 13003KT 28/17 A301 RMK A01 T02820170  RH  053%=      5-min Rain = 0
KSVS 031415Z 15004KT 28/17 A301 RMK A01 T02840171  RH  053%=      5-min Rain = 0
KSVS 031420Z 14004KT 29/17 A3011 RMK A01 T02890172  RH  052%=      5-min Rain = 0
KSVS 031425Z 13004KT 29/17 A3011 RMK A01 T02860171  RH  052%=      5-min Rain = 0
KSVS 031430Z 14004KT 29/16 A3011 RMK A01 T02890163  RH  049%=      5-min Rain = 0
KSVS 031435Z 16004KT 29/16 A3011 RMK A01 T02920163  RH  048%=      5-min Rain = 0
KSVS 031440Z 11004KT 29/16 A3011 RMK A01 T02900162  RH  048%=      5-min Rain = 0
KSVS 031445Z 16004KT 29/16 A3011 RMK A01 T02940161  RH  047%=      5-min Rain = 0
KSVS 031450Z 15005G10KT 30/16 A3011 RMK A01 T02980160  RH  046%=      5-min Rain = 0
KSVS 031455Z 13004KT 30/16 A3011 RMK A01 T02980157  RH  045%=      5-min Rain = 0
KSVS 031500Z 18006KT 30/16 A3011 RMK A01 T03010158  RH  044%=      5-min Rain = 0
KSVS 031505Z 19006KT 30/16 A3011 RMK A01 T03020155  RH  043%=      5-min Rain = 0
KSVS 031510Z 19006KT 31/16 A3011 RMK A01 T03080156  RH  042%=      5-min Rain = 0
KSVS 031515Z 19005G12KT 31/15 A3011 RMK A01 T03050152  RH  041%=      5-min Rain = 0
KSVS 031520Z 21007KT 31/14 A3011 RMK A01 T03110144  RH  038%=      5-min Rain = 0
KSVS 031525Z 20007KT 31/14 A3012 RMK A01 T03130144  RH  037%=      5-min Rain = 0
KSVS 031530Z 20006KT 31/14 A3012 RMK A01 T03120143  RH  037%=      5-min Rain = 0
KSVS 031535Z 23007KT 31/15 A3012 RMK A01 T03140145  RH  037%=      5-min Rain = 0
KSVS 031540Z 24005KT 31/14 A3012 RMK A01 T03100144  RH  038%=      5-min Rain = 0
KSVS 031545Z 19007KT 31/15 A3012 RMK A01 T03130145  RH  038%=      5-min Rain = 0
KSVS 031550Z 19002KT 32/15 A3012 RMK A01 T03160146  RH  037%=      5-min Rain = 0
KSVS 031555Z 20006KT 32/15 A3012 RMK A01 T03160147  RH  037%=      5-min Rain = 0
KSVS 031600Z 24004KT 31/15 A3012 RMK A01 T03130145  RH  038%=      5-min Rain = 0
KSVS 031605Z 20005KT 32/14 A3012 RMK A01 T03160142  RH  036%=      5-min Rain = 0
KSVS 031610Z 22002KT 32/14 A3012 RMK A01 T03150140  RH  036%=      5-min Rain = 0
KSVS 031615Z 19002KT 32/14 A3012 RMK A01 T03190139  RH  035%=      5-min Rain = 0
KSVS 031620Z 20005G11KT 32/15 A3011 RMK A01 T03190146  RH  037%=      5-min Rain = 0
KSVS 031625Z 20004KT 32/15 A3011 RMK A01 T03240147  RH  036%=      5-min Rain = 0
KSVS 031630Z 13004G9KT 32/14 A3011 RMK A01 T03230144  RH  035%=      5-min Rain = 0
KSVS 031635Z 08002KT 32/14 A3011 RMK A01 T03220142  RH  035%=      5-min Rain = 0
KSVS 031640Z 09005KT 32/15 A3011 RMK A01 T03220148  RH  037%=      5-min Rain = 0
KSVS 031645Z 14005G10KT 33/16 A3011 RMK A01 T03270155  RH  037%=      5-min Rain = 0
KSVS 031650Z 16006G11KT 33/15 A3011 RMK A01 T03280145  RH  034%=      5-min Rain = 0
KSVS 031655Z 11003KT 33/14 A3011 RMK A01 T03300141  RH  033%=      5-min Rain = 0
KSVS 031700Z 18003KT 33/14 A3011 RMK A01 T03300140  RH  033%=      5-min Rain = 0
KSVS 031705Z 14006G12KT 33/15 A3011 RMK A01 T03320145  RH  034%=      5-min Rain = 0
KSVS 031710Z 12008KT 34/15 A3011 RMK A01 T03390145  RH  032%=      5-min Rain = 0
KSVS 031715Z 15007G12KT 33/14 A3011 RMK A01 T03320143  RH  033%=      5-min Rain = 0
KSVS 031720Z 12005KT 32/14 A3011 RMK A01 T03230142  RH  035%=      5-min Rain = 0
KSVS 031725Z 12003KT 32/15 A3011 RMK A01 T03190145  RH  036%=      5-min Rain = 0
KSVS 031730Z 19005KT 32/14 A3011 RMK A01 T03230139  RH  034%=      5-min Rain = 0
KSVS 031735Z 17003KT 33/14 A3011 RMK A01 T03260136  RH  033%=      5-min Rain = 0
KSVS 031740Z 19007KT 34/14 A3011 RMK A01 T03420140  RH  031%=      5-min Rain = 0
KSVS 031745Z 18007G13KT 34/14 A301 RMK A01 T03400139  RH  031%=      5-min Rain = 0
KSVS 031750Z 18007KT 34/14 A301 RMK A01 T03410139  RH  031%=      5-min Rain = 0
KSVS 031755Z 18004KT 34/14 A301 RMK A01 T03380139  RH  031%=      5-min Rain = 0
KSVS 031800Z 17004G10KT 34/13 A301 RMK A01 T03390134  RH  030%=      5-min Rain = 0
KSVS 031805Z 13009KT 34/14 A301 RMK A01 T03410135  RH  030%=      5-min Rain = 0
KSVS 031810Z 13009G17KT 34/14 A301 RMK A01 T03430135  RH  030%=      5-min Rain = 0
KSVS 031815Z 11007G16KT 34/13 A301 RMK A01 T03440133  RH  029%=      5-min Rain = 0
KSVS 031820Z 15007G12KT 35/13 A301 RMK A01 T03470134  RH  029%=      5-min Rain = 0
KSVS 031825Z 16010KT 35/13 A3009 RMK A01 T03470132  RH  029%=      5-min Rain = 0
KSVS 031830Z 18010G15KT 34/13 A3009 RMK A01 T03360129  RH  030%=      5-min Rain = 0
KSVS 031835Z 15009KT 34/13 A3009 RMK A01 T03350132  RH  031%=      5-min Rain = 0
KSVS 031840Z 11009G16KT 35/14 A3009 RMK A01 T03460136  RH  029%=      5-min Rain = 0
KSVS 031845Z 15008KT 35/13 A3009 RMK A01 T03500133  RH  028%=      5-min Rain = 0
KSVS 031850Z 18009G14KT 34/13 A3009 RMK A01 T03400130  RH  029%=      5-min Rain = 0
KSVS 031855Z 18009G14KT 35/13 A3009 RMK A01 T03500132  RH  028%=      5-min Rain = 0
KSVS 031900Z 15010G22KT 35/13 A3008 RMK A01 T03460132  RH  029%=      5-min Rain = 0
KSVS 031905Z 17008KT 35/13 A3008 RMK A01 T03490132  RH  028%=      5-min Rain = 0
KSVS 031910Z 16005KT 35/13 A3008 RMK A01 T03510131  RH  028%=      5-min Rain = 0
KSVS 031915Z 13011G16KT 35/13 A3008 RMK A01 T03530133  RH  028%=      5-min Rain = 0
KSVS 031920Z 14005KT 35/13 A3008 RMK A01 T03460131  RH  029%=      5-min Rain = 0
KSVS 031925Z 14008G13KT 34/13 A3008 RMK A01 T03410131  RH  029%=      5-min Rain = 0
KSVS 031930Z 11010G15KT 35/13 A3008 RMK A01 T03460133  RH  029%=      5-min Rain = 0
KSVS 031935Z 11009G14KT 36/13 A3008 RMK A01 T03550133  RH  027%=      5-min Rain = 0
KSVS 031940Z 11005G11KT 35/13 A3007 RMK A01 T03540131  RH  027%=      5-min Rain = 0
KSVS 031945Z 14006G11KT 36/13 A3007 RMK A01 T03550132  RH  027%=      5-min Rain = 0
KSVS 031950Z 15008G13KT 36/13 A3007 RMK A01 T03570130  RH  027%=      5-min Rain = 0
KSVS 031955Z 15009G17KT 36/13 A3007 RMK A01 T03610132  RH  026%=      5-min Rain = 0
KSVS 032000Z 14009KT 36/13 A3007 RMK A01 T03610129  RH  026%=      5-min Rain = 0
KSVS 032005Z 13009G14KT 36/13 A3007 RMK A01 T03570132  RH  027%=      5-min Rain = 0
KSVS 032010Z 12011G16KT 36/13 A3007 RMK A01 T03600132  RH  027%=      5-min Rain = 0
KSVS 032015Z 17008KT 36/13 A3007 RMK A01 T03630132  RH  026%=      5-min Rain = 0
KSVS 032020Z 16007G13KT 37/13 A3007 RMK A01 T03670132  RH  026%=      5-min Rain = 0
KSVS 032025Z 13009G14KT 36/13 A3007 RMK A01 T03610131  RH  026%=      5-min Rain = 0
KSVS 032030Z 12009KT 36/13 A3007 RMK A01 T03630132  RH  026%=      5-min Rain = 0
KSVS 032035Z 14010G17KT 36/13 A3006 RMK A01 T03620131  RH  026%=      5-min Rain = 0
KSVS 032040Z 16008G15KT 36/13 A3006 RMK A01 T03610131  RH  026%=      5-min Rain = 0
KSVS 032045Z 12013G18KT 36/14 A3006 RMK A01 T03640135  RH  026%=      5-min Rain = 0
KSVS 032050Z 11011G17KT 36/13 A3006 RMK A01 T03600133  RH  027%=      5-min Rain = 0
KSVS 032055Z 13013G18KT 36/13 A3006 RMK A01 T03550130  RH  027%=      5-min Rain = 0
KSVS 032100Z 13012KT 35/13 A3006 RMK A01 T03460130  RH  028%=      5-min Rain = 0
KSVS 032105Z 14010KT 34/13 A3006 RMK A01 T03430129  RH  029%=      5-min Rain = 0
KSVS 032110Z 14010G16KT 35/13 A3005 RMK A01 T03540133  RH  028%=      5-min Rain = 0
KSVS 032115Z 14011G18KT 35/13 A3005 RMK A01 T03540130  RH  027%=      5-min Rain = 0
KSVS 032120Z 15012G18KT 36/13 A3005 RMK A01 T03610130  RH  026%=      5-min Rain = 0
KSVS 032125Z 12013G18KT 36/13 A3005 RMK A01 T03600131  RH  026%=      5-min Rain = 0
KSVS 032130Z 13011G17KT 36/13 A3005 RMK A01 T03610130  RH  026%=      5-min Rain = 0
KSVS 032135Z 15011G18KT 36/13 A3004 RMK A01 T03640128  RH  025%=      5-min Rain = 0
KSVS 032140Z 14016G21KT 36/13 A3004 RMK A01 T03600127  RH  026%=      5-min Rain = 0
KSVS 032145Z 13013G22KT 36/13 A3005 RMK A01 T03580127  RH  026%=      5-min Rain = 0
KSVS 032150Z 13013G21KT 36/13 A3005 RMK A01 T03580126  RH  026%=      5-min Rain = 0
KSVS 032155Z 15009G22KT 36/13 A3005 RMK A01 T03590126  RH  026%=      5-min Rain = 0
KSVS 032200Z 12013KT 36/13 A3005 RMK A01 T03580126  RH  026%=      5-min Rain = 0
KSVS 032205Z 12011KT 35/13 A3004 RMK A01 T03540125  RH  026%=      5-min Rain = 0
KSVS 032210Z 14009G15KT 36/12 A3005 RMK A01 T03580122  RH  025%=      5-min Rain = 0
KSVS 032215Z 10006KT 35/12 A3004 RMK A01 T03490121  RH  026%=      5-min Rain = 0
KSVS 032220Z 11010G19KT 36/12 A3004 RMK A01 T03550124  RH  026%=      5-min Rain = 0
KSVS 032225Z 14009G16KT 36/12 A3004 RMK A01 T03550121  RH  025%=      5-min Rain = 0
KSVS 032230Z 11006KT 35/12 A3004 RMK A01 T03460121  RH  027%=      5-min Rain = 0
KSVS 032235Z 14006G13KT 34/12 A3004 RMK A01 T03440120  RH  027%=      5-min Rain = 0
KSVS 032240Z 16009G14KT 35/12 A3004 RMK A01 T03500121  RH  026%=      5-min Rain = 0
KSVS 032245Z 15008G14KT 35/12 A3004 RMK A01 T03530120  RH  025%=      5-min Rain = 0
KSVS 032250Z 15007G12KT 35/12 A3003 RMK A01 T03540119  RH  025%=      5-min Rain = 0
KSVS 032255Z 15005KT 35/12 A3003 RMK A01 T03530117  RH  025%=      5-min Rain = 0
KSVS 032300Z 13010G15KT 35/12 A3003 RMK A01 T03540120  RH  025%=      5-min Rain = 0
KSVS 032305Z 14008G13KT 35/12 A3003 RMK A01 T03520119  RH  025%=      5-min Rain = 0
KSVS 032310Z 16006KT 35/12 A3002 RMK A01 T03530118  RH  025%=      5-min Rain = 0
KSVS 032315Z 14009KT 36/12 A3002 RMK A01 T03560119  RH  025%=      5-min Rain = 0
KSVS 032320Z 12009KT 35/12 A3002 RMK A01 T03510118  RH  025%=      5-min Rain = 0
KSVS 032325Z 13008G14KT 35/12 A3002 RMK A01 T03470120  RH  026%=      5-min Rain = 0
KSVS 032330Z 11008KT 34/12 A3002 RMK A01 T03420120  RH  027%=      5-min Rain = 0
KSVS 032335Z 09008KT 34/12 A3002 RMK A01 T03400121  RH  028%=      5-min Rain = 0
KSVS 032340Z 12009G14KT 34/12 A3002 RMK A01 T03390120  RH  028%=      5-min Rain = 0
KSVS 032345Z 11011G16KT 34/12 A3002 RMK A01 T03360120  RH  028%=      5-min Rain = 0
KSVS 032350Z 10009KT 34/12 A3002 RMK A01 T03350119  RH  028%=      5-min Rain = 0
KSVS 032355Z 10008KT 34/12 A3002 RMK A01 T03350120  RH  028%=      5-min Rain = 0
KSVS 040000Z 12011KT 34/12 A3002 RMK A01 T03350119  RH  028%=      5-min Rain = 0
KSVS 040005Z 12011KT 33/12 A3002 RMK A01 T03340119  RH  028%=      5-min Rain = 0
KSVS 040010Z 11011KT 34/12 A3002 RMK A01 T03350119  RH  028%=      5-min Rain = 0
KSVS 040015Z 12012KT 34/12 A3002 RMK A01 T03360119  RH  028%=      5-min Rain = 0
KSVS 040020Z 12011G16KT 34/12 A3002 RMK A01 T03370122  RH  028%=      5-min Rain = 0
KSVS 040025Z 10014G19KT 34/13 A3003 RMK A01 T03370129  RH  030%=      5-min Rain = 0
KSVS 040030Z 10012G17KT 33/13 A3003 RMK A01 T03310134  RH  032%=      5-min Rain = 0
KSVS 040035Z 10015G20KT 33/14 A3003 RMK A01 T03310135  RH  032%=      5-min Rain = 0
KSVS 040040Z 10015KT 33/14 A3003 RMK A01 T03260136  RH  033%=      5-min Rain = 0
KSVS 040045Z 10012KT 33/14 A3003 RMK A01 T03260139  RH  034%=      5-min Rain = 0
KSVS 040050Z 10012KT 32/14 A3004 RMK A01 T03230138  RH  034%=      5-min Rain = 0
KSVS 040055Z 10012KT 32/14 A3004 RMK A01 T03230137  RH  034%=      5-min Rain = 0
KSVS 040100Z 10011KT 32/14 A3004 RMK A01 T03220136  RH  034%=      5-min Rain = 0
KSVS 040105Z 11012KT 32/14 A3004 RMK A01 T03210136  RH  034%=      5-min Rain = 0
KSVS 040110Z 11013KT 32/14 A3004 RMK A01 T03200137  RH  034%=      5-min Rain = 0
KSVS 040115Z 11013KT 32/14 A3004 RMK A01 T03190137  RH  035%=      5-min Rain = 0
KSVS 040120Z 11010KT 32/14 A3004 RMK A01 T03170138  RH  035%=      5-min Rain = 0
KSVS 040125Z 12011G16KT 32/14 A3004 RMK A01 T03150138  RH  036%=      5-min Rain = 0
KSVS 040130Z 12010KT 31/14 A3004 RMK A01 T03120139  RH  036%=      5-min Rain = 0
KSVS 040135Z 12010KT 31/14 A3004 RMK A01 T03100139  RH  037%=      5-min Rain = 0
KSVS 040140Z 11010G15KT 31/14 A3004 RMK A01 T03070140  RH  038%=      5-min Rain = 0
KSVS 040145Z 11011KT 31/14 A3004 RMK A01 T03070140  RH  038%=      5-min Rain = 0
KSVS 040150Z 11010KT 30/14 A3004 RMK A01 T03040140  RH  038%=      5-min Rain = 0
KSVS 040155Z 11010KT 30/14 A3004 RMK A01 T03040141  RH  039%=      5-min Rain = 0
KSVS 040200Z 11009KT 30/14 A3004 RMK A01 T03010141  RH  039%=      5-min Rain = 0
KSVS 040205Z 12009KT 30/14 A3004 RMK A01 T02980141  RH  040%=      5-min Rain = 0
KSVS 040210Z 12008KT 30/14 A3004 RMK A01 T02950142  RH  041%=      5-min Rain = 0
KSVS 040215Z 12009KT 29/14 A3004 RMK A01 T02920143  RH  042%=      5-min Rain = 0
KSVS 040220Z 12008KT 29/14 A3005 RMK A01 T02880143  RH  043%=      5-min Rain = 0
KSVS 040225Z 12008KT 29/14 A3005 RMK A01 T02860143  RH  043%=      5-min Rain = 0
KSVS 040230Z 12007KT 28/14 A3005 RMK A01 T02820143  RH  044%=      5-min Rain = 0
KSVS 040235Z 13008KT 28/14 A3005 RMK A01 T02790143  RH  045%=      5-min Rain = 0
KSVS 040240Z 13008KT 28/14 A3006 RMK A01 T02760142  RH  046%=      5-min Rain = 0
KSVS 040245Z 13008KT 28/14 A3006 RMK A01 T02750142  RH  046%=      5-min Rain = 0
KSVS 040250Z 12008KT 27/14 A3006 RMK A01 T02740143  RH  047%=      5-min Rain = 0
KSVS 040255Z 12008KT 27/14 A3006 RMK A01 T02740143  RH  047%=      5-min Rain = 0
KSVS 040300Z 12008KT 27/14 A3007 RMK A01 T02710144  RH  048%=      5-min Rain = 0
KSVS 040305Z 12008KT 27/14 A3007 RMK A01 T02680143  RH  048%=      5-min Rain = 0
KSVS 040310Z 13007KT 27/14 A3007 RMK A01 T02650143  RH  049%=      5-min Rain = 0
KSVS 040315Z 13008KT 26/14 A3007 RMK A01 T02630144  RH  050%=      5-min Rain = 0
KSVS 040320Z 12008KT 26/14 A3007 RMK A01 T02630144  RH  050%=      5-min Rain = 0
KSVS 040325Z 13008KT 27/15 A3008 RMK A01 T02650145  RH  050%=      5-min Rain = 0
KSVS 040330Z 13007KT 27/15 A3008 RMK A01 T02670146  RH  050%=      5-min Rain = 0
KSVS 040335Z 13006KT 26/15 A3008 RMK A01 T02630146  RH  051%=      5-min Rain = 0
KSVS 040340Z 12007KT 26/15 A3008 RMK A01 T02600147  RH  052%=      5-min Rain = 0
KSVS 040345Z 12008KT 26/15 A3009 RMK A01 T02600148  RH  052%=      5-min Rain = 0
KSVS 040350Z 12008KT 26/15 A3009 RMK A01 T02620147  RH  052%=      5-min Rain = 0
KSVS 040355Z 12008KT 26/15 A3009 RMK A01 T02630147  RH  051%=      5-min Rain = 0
KSVS 040400Z 12008KT 26/15 A3009 RMK A01 T02620147  RH  051%=      5-min Rain = 0
KSVS 040405Z 12008KT 26/15 A3009 RMK A01 T02610147  RH  051%=      5-min Rain = 0
KSVS 040410Z 12007KT 26/15 A3009 RMK A01 T02580147  RH  052%=      5-min Rain = 0
KSVS 040415Z 12007KT 26/15 A3009 RMK A01 T02570146  RH  053%=      5-min Rain = 0
KSVS 040420Z 12007KT 26/15 A3009 RMK A01 T02550146  RH  053%=      5-min Rain = 0
KSVS 040425Z 13007KT 25/15 A3009 RMK A01 T02520146  RH  054%=      5-min Rain = 0
KSVS 040430Z 14007KT 25/15 A3009 RMK A01 T02490146  RH  055%=      5-min Rain = 0
KSVS 040435Z 14007KT 25/15 A3009 RMK A01 T02450146  RH  056%=      5-min Rain = 0
KSVS 040440Z 14007KT 25/14 A3009 RMK A01 T02450144  RH  056%=      5-min Rain = 0
KSVS 040445Z 14007KT 25/14 A3009 RMK A01 T02450143  RH  055%=      5-min Rain = 0
KSVS 040450Z 14008KT 25/14 A3009 RMK A01 T02460143  RH  055%=      5-min Rain = 0
KSVS 040455Z 14008KT 25/14 A3009 RMK A01 T02480142  RH  054%=      5-min Rain = 0

Page generated in 0.0094 seconds.